createdAt,value
2023-04-02T00:00:20.720Z,101253.16
2023-04-02T00:02:54.802Z,101249.63
2023-04-02T00:05:26.125Z,101249.38
2023-04-02T00:07:58.141Z,101260.75
2023-04-02T00:10:33.664Z,101255.06
2023-04-02T00:13:32.173Z,101265.91
2023-04-02T00:16:00.452Z,101265.38
2023-04-02T00:18:27.691Z,101266.19
2023-04-02T00:21:12.063Z,101267.28
2023-04-02T00:23:43.833Z,101277.28
2023-04-02T00:26:28.875Z,101275.66
2023-04-02T00:28:55.355Z,101289.25
2023-04-02T00:31:22.415Z,101289.25
2023-04-02T00:33:50.003Z,101285.72
2023-04-02T00:36:20.223Z,101294.13
2023-04-02T00:38:48.739Z,101298.72
2023-04-02T00:41:22.534Z,101299.56
2023-04-02T00:43:52.706Z,101313.38
2023-04-02T00:46:30.064Z,101312.56
2023-04-02T00:49:02.811Z,101315.28
2023-04-02T00:52:00.687Z,101326.72
2023-04-02T00:54:31.729Z,101319.63
2023-04-02T00:56:58.914Z,101329.97
2023-04-02T00:59:35.720Z,101327.25
2023-04-02T01:02:18.575Z,101340.00
2023-04-02T01:05:22.374Z,101341.91
2023-04-02T01:08:12.949Z,101341.06
2023-04-02T01:11:06.195Z,101353.81
2023-04-02T01:14:20.934Z,101359.78
2023-04-02T01:17:26.560Z,101366.84
2023-04-02T01:20:11.410Z,101366.84
2023-04-02T01:22:51.948Z,101369.81
2023-04-02T01:25:30.175Z,101373.34
2023-04-02T01:28:19.511Z,101377.16
2023-04-02T01:30:52.514Z,101381.50
2023-04-02T01:33:23.256Z,101381.75
2023-04-02T01:36:05.873Z,101383.38
2023-04-02T01:38:45.529Z,101386.38
2023-04-02T01:41:32.152Z,101401.03
2023-04-02T01:44:07.437Z,101399.38
2023-04-02T01:46:38.376Z,101403.19
2023-04-02T01:49:14.561Z,101413.78
2023-04-02T01:51:46.501Z,101417.56
2023-04-02T01:54:16.265Z,101414.03
2023-04-02T01:56:44.567Z,101420.56
2023-04-02T01:59:12.275Z,101423.28
2023-04-02T02:01:45.148Z,101429.50
2023-04-02T02:04:16.395Z,101427.63
2023-04-02T02:06:43.982Z,101436.56
2023-04-02T02:09:18.251Z,101439.56
2023-04-02T02:11:44.847Z,101440.66
2023-04-02T02:14:24.930Z,101454.22
2023-04-02T02:16:56.587Z,101444.41
2023-04-02T02:19:35.337Z,101459.66
2023-04-02T02:22:12.183Z,101456.94
2023-04-02T02:24:39.415Z,101458.00
2023-04-02T02:27:26.537Z,101466.13
2023-04-02T02:30:10.487Z,101458.25
2023-04-02T02:32:51.691Z,101478.34
2023-04-02T02:35:23.764Z,101481.31
2023-04-02T02:38:02.424Z,101476.69
2023-04-02T02:40:38.968Z,101481.31
2023-04-02T02:43:11.979Z,101485.09
2023-04-02T02:45:41.220Z,101497.59
2023-04-02T02:48:13.719Z,101499.75
2023-04-02T02:50:41.839Z,101505.41
2023-04-02T02:53:23.470Z,101506.00
2023-04-02T02:55:56.479Z,101503.78
2023-04-02T02:58:32.713Z,101514.91
2023-04-02T03:00:59.667Z,101519.50
2023-04-02T03:03:32.740Z,101520.56
2023-04-02T03:06:11.654Z,101531.19
2023-04-02T03:08:41.669Z,101540.41
2023-04-02T03:11:15.946Z,101538.75
2023-04-02T03:13:47.323Z,101550.44
2023-04-02T03:16:34.309Z,101549.63
2023-04-02T03:19:12.948Z,101554.25
2023-04-02T03:21:48.752Z,101549.03
2023-04-02T03:24:23.140Z,101563.47
2023-04-02T03:26:55.804Z,101557.19
2023-04-02T03:29:33.059Z,101572.66
2023-04-02T03:32:24.086Z,101576.19
2023-04-02T03:34:57.036Z,101588.13
2023-04-02T03:37:34.374Z,101589.22
2023-04-02T03:40:17.405Z,101605.50
2023-04-02T03:43:13.529Z,101610.34
2023-04-02T03:45:44.107Z,101615.78
2023-04-02T03:48:15.865Z,101623.91
2023-04-02T03:51:08.474Z,101628.50
2023-04-02T03:53:35.088Z,101635.25
2023-04-02T03:56:02.619Z,101643.41
2023-04-02T03:58:38.589Z,101636.31
2023-04-02T04:01:09.321Z,101652.59
2023-04-02T04:03:50.211Z,101655.31
2023-04-02T04:06:24.023Z,101655.09
2023-04-02T04:08:59.279Z,101667.56
2023-04-02T04:11:31.883Z,101676.34
2023-04-02T04:14:15.687Z,101668.50
2023-04-02T04:16:42.896Z,101672.38
2023-04-02T04:19:22.198Z,101681.06
2023-04-02T04:21:48.782Z,101694.97
2023-04-02T04:24:23.060Z,101690.13
2023-04-02T04:27:04.284Z,101693.41
2023-04-02T04:29:54.253Z,101701.31
2023-04-02T04:32:38.953Z,101695.34
2023-04-02T04:35:17.564Z,101708.94
2023-04-02T04:37:49.608Z,101702.69
2023-04-02T04:40:22.459Z,101718.97
2023-04-02T04:42:53.020Z,101714.38
2023-04-02T04:45:20.114Z,101725.50
2023-04-02T04:48:01.606Z,101718.97
2023-04-02T04:50:50.938Z,101727.13
2023-04-02T04:53:22.451Z,101742.59
2023-04-02T04:55:53.007Z,101737.44
2023-04-02T04:58:43.239Z,101751.00
2023-04-02T05:01:33.559Z,101755.63
2023-04-02T05:04:06.697Z,101767.31
2023-04-02T05:07:03.428Z,101759.97
2023-04-02T05:09:56.114Z,101778.72
2023-04-02T05:12:37.711Z,101782.25
2023-04-02T05:15:29.545Z,101789.34
2023-04-02T05:18:17.643Z,101805.63
2023-04-02T05:20:51.375Z,101802.94
2023-04-02T05:23:28.744Z,101818.13
2023-04-02T05:25:58.903Z,101824.38
2023-04-02T05:28:38.345Z,101818.13
2023-04-02T05:31:17.535Z,101829.81
2023-04-02T05:33:49.075Z,101839.03
2023-04-02T05:36:22.634Z,101830.09
2023-04-02T05:38:51.195Z,101836.34
2023-04-02T05:41:38.349Z,101836.56
2023-04-02T05:44:21.909Z,101842.81
2023-04-02T05:47:06.126Z,101844.47
2023-04-02T05:49:45.316Z,101850.47
2023-04-02T05:52:34.114Z,101858.63
2023-04-02T05:55:12.661Z,101856.72
2023-04-02T05:57:54.834Z,101869.25
2023-04-02T06:00:39.196Z,101867.34
2023-04-02T06:03:39.217Z,101873.00
2023-04-02T06:06:45.033Z,101882.81
2023-04-02T06:09:37.794Z,101883.88
2023-04-02T06:12:10.413Z,101886.59
2023-04-02T06:14:37.256Z,101900.16
2023-04-02T06:17:04.002Z,101921.91
2023-04-02T06:19:38.429Z,101922.97
2023-04-02T06:22:19.050Z,101921.09
2023-04-02T06:24:47.365Z,101942.81
2023-04-02T06:27:20.201Z,101947.41
2023-04-02T06:29:48.726Z,101953.94
2023-04-02T06:32:15.770Z,101952.03
2023-04-02T06:34:43.004Z,101963.72
2023-04-02T06:37:19.964Z,101967.50
2023-04-02T06:39:46.715Z,101975.41
2023-04-02T06:42:19.018Z,101978.94
2023-04-02T06:44:46.240Z,101980.59
2023-04-02T06:47:27.870Z,101980.59
2023-04-02T06:50:07.035Z,101988.75
2023-04-02T06:52:39.452Z,102006.69
2023-04-02T06:55:17.836Z,101993.09
2023-04-02T06:57:44.451Z,102002.31
2023-04-02T07:00:34.990Z,102008.81
2023-04-02T07:03:05.644Z,102013.41
2023-04-02T07:05:32.069Z,102012.38
2023-04-02T07:07:58.614Z,102029.72
2023-04-02T07:10:25.142Z,102031.59
2023-04-02T07:12:51.695Z,102040.81
2023-04-02T07:15:23.934Z,102049.78
2023-04-02T07:17:51.095Z,102046.00
2023-04-02T07:20:37.669Z,102062.06
2023-04-02T07:23:04.673Z,102067.72
2023-04-02T07:25:31.268Z,102068.56
2023-04-02T07:27:57.865Z,102070.22
2023-04-02T07:30:24.501Z,102073.75
2023-04-02T07:32:51.261Z,102089.81
2023-04-02T07:35:17.850Z,102087.09
2023-04-02T07:37:44.327Z,102084.63
2023-04-02T07:40:19.257Z,102102.56
2023-04-02T07:42:46.228Z,102111.78
2023-04-02T07:45:13.790Z,102103.38
2023-04-02T07:47:40.815Z,102114.25
2023-04-02T07:50:08.379Z,102116.97
2023-04-02T07:52:40.600Z,102120.50
2023-04-02T07:55:07.871Z,102118.84
2023-04-02T07:57:38.879Z,102124.28
2023-04-02T08:00:07.454Z,102144.94
2023-04-02T08:02:34.082Z,102132.44
2023-04-02T08:05:01.267Z,102130.53
2023-04-02T08:07:28.217Z,102140.59
2023-04-02T08:09:54.712Z,102149.56
2023-04-02T08:12:21.270Z,102153.09
2023-04-02T08:14:47.738Z,102160.41
2023-04-02T08:17:14.294Z,102160.69
2023-04-02T08:19:53.762Z,102169.63
2023-04-02T08:22:21.344Z,102173.19
2023-04-02T08:24:47.905Z,102178.88
2023-04-02T08:27:15.117Z,102178.03
2023-04-02T08:29:41.642Z,102187.84
2023-04-02T08:32:12.142Z,102190.56
2023-04-02T08:34:38.644Z,102181.56
2023-04-02T08:37:05.295Z,102189.47
2023-04-02T08:39:33.202Z,102195.72
2023-04-02T08:42:18.025Z,102190.31
2023-04-02T08:45:23.693Z,102212.84
2023-04-02T08:47:55.357Z,102208.00
2023-04-02T08:50:31.036Z,102210.47
2023-04-02T08:52:59.361Z,102213.19
2023-04-02T08:55:42.920Z,102230.31
2023-04-02T08:58:37.489Z,102229.50
2023-04-02T09:01:07.266Z,102240.38
2023-04-02T09:03:42.898Z,102254.75
2023-04-02T09:06:16.032Z,102251.47
2023-04-02T09:08:44.981Z,102259.38
2023-04-02T09:11:24.716Z,102262.91
2023-04-02T09:13:56.920Z,102259.38
2023-04-02T09:16:42.151Z,102267.53
2023-04-02T09:19:18.227Z,102272.13
2023-04-02T09:22:06.505Z,102265.88
2023-04-02T09:24:33.669Z,102286.78
2023-04-02T09:27:00.592Z,102278.63
2023-04-02T09:29:48.633Z,102289.25
2023-04-02T09:32:37.408Z,102274.84
2023-04-02T09:35:39.002Z,102294.69
2023-04-02T09:38:23.816Z,102295.50
2023-04-02T09:41:18.677Z,102314.53
2023-04-02T09:43:45.179Z,102314.53
2023-04-02T09:46:25.907Z,102305.34
2023-04-02T09:49:01.221Z,102309.69
2023-04-02T09:51:34.334Z,102320.56
2023-04-02T09:54:03.990Z,102332.03
2023-04-02T09:56:32.463Z,102333.44
2023-04-02T09:59:06.174Z,102322.91
2023-04-02T10:01:38.869Z,102334.13
2023-04-02T10:04:26.590Z,102328.25
2023-04-02T10:06:58.086Z,102330.72
2023-04-02T10:09:33.896Z,102328.34
2023-04-02T10:12:02.470Z,102327.06
2023-04-02T10:14:36.640Z,102326.34
2023-04-02T10:17:27.843Z,102340.28
2023-04-02T10:19:59.878Z,102341.91
2023-04-02T10:22:28.148Z,102334.63
2023-04-02T10:24:54.889Z,102343.59
2023-04-02T10:27:34.302Z,102352.31
2023-04-02T10:30:09.461Z,102354.00
2023-04-02T10:32:48.835Z,102362.97
2023-04-02T10:35:35.781Z,102369.44
2023-04-02T10:38:23.706Z,102382.00
2023-04-02T10:41:07.895Z,102383.91
2023-04-02T10:43:40.636Z,102389.56
2023-04-02T10:46:16.358Z,102389.34
2023-04-02T10:49:22.067Z,102389.91
2023-04-02T10:52:00.234Z,102391.56
2023-04-02T10:55:08.859Z,102398.66
2023-04-02T10:57:40.497Z,102394.06
2023-04-02T11:00:16.975Z,102403.03
2023-04-02T11:03:12.521Z,102395.69
2023-04-02T11:05:51.160Z,102403.59
2023-04-02T11:08:28.083Z,102401.75
2023-04-02T11:11:44.324Z,102399.84
2023-04-02T11:14:26.234Z,102408.56
2023-04-02T11:16:54.894Z,102397.13
2023-04-02T11:19:25.359Z,102398.75
2023-04-02T11:22:06.472Z,102398.34
2023-04-02T11:24:38.814Z,102410.84
2023-04-02T11:27:08.661Z,102421.47
2023-04-02T11:29:37.031Z,102414.16
2023-04-02T11:32:21.881Z,102414.75
2023-04-02T11:35:06.574Z,102411.19
2023-04-02T11:37:38.401Z,102420.78
2023-04-02T11:40:08.202Z,102432.47
2023-04-02T11:42:36.704Z,102426.78
2023-04-02T11:45:52.912Z,102419.72
2023-04-02T11:48:19.828Z,102434.94
2023-04-02T11:50:46.778Z,102436.59
2023-04-02T11:53:21.081Z,102442.03
2023-04-02T11:55:56.825Z,102440.19
2023-04-02T11:58:56.860Z,102451.63
2023-04-02T12:01:32.426Z,102454.94
2023-04-02T12:04:33.345Z,102460.13
2023-04-02T12:07:26.832Z,102459.06
2023-04-02T12:09:59.775Z,102460.75
2023-04-02T12:12:39.540Z,102465.09
2023-04-02T12:15:24.822Z,102468.41
2023-04-02T12:17:51.443Z,102453.16
2023-04-02T12:20:23.429Z,102468.66
2023-04-02T12:22:54.145Z,102465.69
2023-04-02T12:25:54.279Z,102457.06
2023-04-02T12:28:22.374Z,102450.31
2023-04-02T12:30:51.630Z,102453.63
2023-04-02T12:33:27.939Z,102454.22
2023-04-02T12:36:00.123Z,102461.31
2023-04-02T12:38:30.857Z,102460.25
2023-04-02T12:41:04.289Z,102460.81
2023-04-02T12:43:37.637Z,102473.13
2023-04-02T12:46:08.798Z,102475.84
2023-04-02T12:48:36.397Z,102468.78
2023-04-02T12:51:04.094Z,102483.75
2023-04-02T12:53:39.396Z,102477.84
2023-04-02T12:56:08.305Z,102493.09
2023-04-02T12:58:41.106Z,102482.22
2023-04-02T13:01:20.258Z,102489.91
2023-04-02T13:04:19.370Z,102484.00
2023-04-02T13:06:57.149Z,102504.94
2023-04-02T13:09:44.858Z,102500.31
2023-04-02T13:12:40.479Z,102495.69
2023-04-02T13:15:29.030Z,102485.66
2023-04-02T13:18:19.203Z,102500.69
2023-04-02T13:20:58.971Z,102496.66
2023-04-02T13:23:33.360Z,102506.47
2023-04-02T13:26:09.930Z,102486.34
2023-04-02T13:28:36.608Z,102500.56
2023-04-02T13:31:03.191Z,102489.41
2023-04-02T13:33:30.085Z,102497.09
2023-04-02T13:35:56.608Z,102496.84
2023-04-02T13:38:23.105Z,102501.81
2023-04-02T13:40:49.570Z,102503.72
2023-04-02T13:43:19.807Z,102501.81
2023-04-02T13:45:53.190Z,102500.75
2023-04-02T13:48:19.814Z,102511.16
2023-04-02T13:50:46.824Z,102501.69
2023-04-02T13:53:21.314Z,102498.16
2023-04-02T13:55:48.279Z,102522.19
2023-04-02T13:58:14.784Z,102519.19
2023-04-02T14:00:41.641Z,102531.75
2023-04-02T14:03:18.554Z,102529.41
2023-04-02T14:05:57.476Z,102527.28
2023-04-02T14:08:42.726Z,102528.66
2023-04-02T14:11:18.868Z,102523.00
2023-04-02T14:13:57.341Z,102530.91
2023-04-02T14:16:42.200Z,102553.50
2023-04-02T14:19:42.733Z,102547.03
2023-04-02T14:22:50.783Z,102549.50
2023-04-02T14:25:33.929Z,102549.25
2023-04-02T14:28:29.869Z,102551.41
2023-04-02T14:31:21.703Z,102554.94
2023-04-02T14:34:02.264Z,102562.63
2023-04-02T14:36:34.539Z,102562.16
2023-04-02T14:39:10.033Z,102555.03
2023-04-02T14:41:57.429Z,102559.66
2023-04-02T14:44:28.848Z,102559.19
2023-04-02T14:47:13.005Z,102554.34
2023-04-02T14:49:43.109Z,102561.19
2023-04-02T14:52:19.113Z,102577.53
2023-04-02T14:54:52.275Z,102579.75
2023-04-02T14:57:21.420Z,102581.41
2023-04-02T14:59:59.548Z,102577.38
2023-04-02T15:02:48.056Z,102586.97
2023-04-02T15:05:21.207Z,102574.19
2023-04-02T15:08:03.065Z,102576.09
2023-04-02T15:10:39.240Z,102571.22
2023-04-02T15:13:12.383Z,102590.88
2023-04-02T15:15:48.015Z,102591.09
2023-04-02T15:18:17.379Z,102586.25
2023-04-02T15:21:16.670Z,102574.88
2023-04-02T15:24:04.206Z,102573.81
2023-04-02T15:26:58.350Z,102579.84
2023-04-02T15:29:36.416Z,102571.69
2023-04-02T15:32:22.992Z,102573.31
2023-04-02T15:35:08.189Z,102583.97
2023-04-02T15:37:43.465Z,102579.13
2023-04-02T15:40:25.312Z,102579.94
2023-04-02T15:43:27.620Z,102582.19
2023-04-02T15:45:57.534Z,102572.94
2023-04-02T15:48:48.311Z,102579.22
2023-04-02T15:51:35.983Z,102583.56
2023-04-02T15:54:17.589Z,102594.47
2023-04-02T15:57:21.887Z,102599.09
2023-04-02T15:59:54.228Z,102598.63
2023-04-02T16:02:23.740Z,102613.31
2023-04-02T16:04:56.441Z,102608.44
2023-04-02T16:08:05.123Z,102614.97
2023-04-02T16:10:42.473Z,102614.97
2023-04-02T16:13:38.843Z,102621.25
2023-04-02T16:16:08.557Z,102625.88
2023-04-02T16:18:47.717Z,102618.28
2023-04-02T16:21:38.550Z,102626.47
2023-04-02T16:24:14.126Z,102622.66
2023-04-02T16:27:16.667Z,102624.56
2023-04-02T16:29:55.824Z,102628.13
2023-04-02T16:32:35.909Z,102628.94
2023-04-02T16:35:43.009Z,102642.56
2023-04-02T16:38:54.796Z,102634.38
2023-04-02T16:41:22.062Z,102632.75
2023-04-02T16:44:25.581Z,102641.75
2023-04-02T16:47:16.845Z,102646.13
2023-04-02T16:50:19.787Z,102648.63
2023-04-02T16:52:49.154Z,102648.63
2023-04-02T16:55:32.915Z,102648.63
2023-04-02T16:58:02.161Z,102665.78
2023-04-02T17:00:37.947Z,102660.34
2023-04-02T17:03:23.257Z,102672.28
2023-04-02T17:05:55.571Z,102681.53
2023-04-02T17:08:29.937Z,102680.72
2023-04-02T17:11:07.896Z,102682.63
2023-04-02T17:13:42.084Z,102678.00
2023-04-02T17:16:08.668Z,102689.97
2023-04-02T17:18:35.507Z,102700.03
2023-04-02T17:21:08.675Z,102700.03
2023-04-02T17:23:55.322Z,102701.34
2023-04-02T17:26:28.918Z,102719.59
2023-04-02T17:28:58.511Z,102721.25
2023-04-02T17:31:30.645Z,102725.03
2023-04-02T17:33:57.305Z,102726.34
2023-04-02T17:36:38.176Z,102728.25
2023-04-02T17:39:35.208Z,102727.41
2023-04-02T17:42:16.042Z,102740.69
2023-04-02T17:45:02.746Z,102735.47
2023-04-02T17:47:48.009Z,102743.88
2023-04-02T17:50:17.456Z,102731.09
2023-04-02T17:53:21.695Z,102739.50
2023-04-02T17:56:00.335Z,102743.88
2023-04-02T17:58:48.841Z,102750.41
2023-04-02T18:01:24.465Z,102755.50
2023-04-02T18:04:04.893Z,102762.03
2023-04-02T18:06:43.467Z,102773.97
2023-04-02T18:09:37.254Z,102781.09
2023-04-02T18:12:15.056Z,102773.38
2023-04-02T18:15:16.426Z,102783.19
2023-04-02T18:17:47.808Z,102788.41
2023-04-02T18:20:44.735Z,102784.50
2023-04-02T18:23:25.727Z,102788.28
2023-04-02T18:25:57.804Z,102795.38
2023-04-02T18:28:44.542Z,102801.91
2023-04-02T18:31:24.783Z,102795.63
2023-04-02T18:34:13.865Z,102803.81
2023-04-02T18:36:52.253Z,102810.34
2023-04-02T18:39:51.330Z,102814.97
2023-04-02T18:42:51.762Z,102812.44
2023-04-02T18:45:51.797Z,102813.28
2023-04-02T18:48:36.565Z,102810.34
2023-04-02T18:51:06.476Z,102825.00
2023-04-02T18:53:33.647Z,102829.41
2023-04-02T18:56:07.468Z,102828.78
2023-04-02T18:58:57.171Z,102838.25
2023-04-02T19:01:34.410Z,102831.75
2023-04-02T19:04:06.029Z,102837.22
2023-04-02T19:06:39.300Z,102836.97
2023-04-02T19:09:16.707Z,102844.31
2023-04-02T19:11:43.576Z,102843.47
2023-04-02T19:14:17.512Z,102849.75
2023-04-02T19:17:13.421Z,102859.00
2023-04-02T19:19:46.231Z,102858.19
2023-04-02T19:22:20.099Z,102861.94
2023-04-02T19:25:08.104Z,102864.44
2023-04-02T19:27:55.749Z,102863.63
2023-04-02T19:30:38.616Z,102875.34
2023-04-02T19:33:08.246Z,102874.72
2023-04-02T19:36:03.836Z,102876.63
2023-04-02T19:39:05.939Z,102887.78
2023-04-02T19:41:49.734Z,102887.16
2023-04-02T19:44:17.545Z,102885.50
2023-04-02T19:46:44.755Z,102883.84
2023-04-02T19:49:25.737Z,102887.63
2023-04-02T19:51:53.617Z,102890.59
2023-04-02T19:54:20.485Z,102893.31
2023-04-02T19:56:47.239Z,102897.69
2023-04-02T20:01:43.353Z,102917.81
2023-04-02T20:04:09.988Z,102909.91
2023-04-02T20:06:37.482Z,102912.00
2023-04-02T20:09:04.038Z,102917.47
2023-04-02T20:11:31.040Z,102919.09
2023-04-02T20:13:57.552Z,102917.00
2023-04-02T20:16:24.294Z,102916.16
2023-04-02T20:18:51.361Z,102924.56
2023-04-02T20:21:17.940Z,102918.28
2023-04-02T20:23:44.921Z,102918.91
2023-04-02T20:26:12.676Z,102931.69
2023-04-02T20:28:39.637Z,102932.50
2023-04-02T20:31:07.342Z,102940.91
2023-04-02T20:33:34.000Z,102941.13
2023-04-02T20:36:07.325Z,102940.53
2023-04-02T20:38:35.135Z,102948.94
2023-04-02T20:41:02.841Z,102957.31
2023-04-02T20:43:29.521Z,102948.56
2023-04-02T20:45:59.072Z,102956.50
2023-04-02T20:48:27.520Z,102955.91
2023-04-02T20:50:54.293Z,102956.72
2023-04-02T20:53:20.899Z,102957.81
2023-04-02T20:55:47.463Z,102963.47
2023-04-02T20:58:16.204Z,102968.91
2023-04-02T21:00:43.549Z,102974.59
2023-04-02T21:03:11.212Z,102974.81
2023-04-02T21:05:47.710Z,102976.94
2023-04-02T21:08:14.551Z,102976.13
2023-04-02T21:10:41.224Z,102992.66
2023-04-02T21:13:07.802Z,102988.03
2023-04-02T21:15:34.542Z,102988.28
2023-04-02T21:18:01.412Z,102992.03
2023-04-02T21:20:27.987Z,103002.09
2023-04-02T21:22:54.546Z,103008.59
2023-04-02T21:25:21.078Z,103006.09
2023-04-02T21:27:47.616Z,102999.59
2023-04-02T21:30:14.365Z,103004.22
2023-04-02T21:32:40.995Z,103009.91
2023-04-02T21:35:08.904Z,103001.13
2023-04-02T21:37:35.705Z,103004.66
2023-04-02T21:40:02.518Z,103003.00
2023-04-02T21:42:29.117Z,103000.53
2023-04-02T21:44:56.041Z,103012.44
2023-04-02T21:47:23.519Z,103008.06
2023-04-02T21:49:50.122Z,103020.63
2023-04-02T21:52:16.731Z,103014.59
2023-04-02T21:54:43.183Z,103011.88
2023-04-02T21:57:09.771Z,103010.22
2023-04-02T21:59:36.340Z,103005.81
2023-04-02T22:02:02.982Z,103009.59
2023-04-02T22:04:30.698Z,103017.13
2023-04-02T22:06:57.685Z,103012.56
2023-04-02T22:09:26.541Z,103014.41
2023-04-02T22:11:59.006Z,103018.22
2023-04-02T22:14:26.011Z,103016.31
2023-04-02T22:16:52.544Z,103011.09
2023-04-02T22:19:19.149Z,103014.06
2023-04-02T22:21:46.299Z,103022.22
2023-04-02T22:26:40.961Z,103020.78
2023-04-02T22:29:08.141Z,103011.19
2023-04-02T22:31:35.374Z,103021.00
2023-04-02T22:34:04.368Z,103021.22
2023-04-02T22:36:31.786Z,103013.91
2023-04-02T22:39:01.062Z,103009.53
2023-04-02T22:41:29.348Z,103014.97
2023-04-02T22:43:56.815Z,103013.31
2023-04-02T22:46:24.906Z,103018.97
2023-04-02T22:48:51.645Z,103011.84
2023-04-02T22:51:20.745Z,103020.03
2023-04-02T22:53:48.289Z,103017.31
2023-04-02T22:56:18.474Z,103015.84
2023-04-02T22:58:45.994Z,103023.19
2023-04-02T23:01:23.332Z,103022.59
2023-04-02T23:03:50.136Z,103019.03
2023-04-02T23:06:18.346Z,103027.19
2023-04-02T23:08:45.563Z,103033.47
2023-04-02T23:11:15.095Z,103033.69
2023-04-02T23:13:42.574Z,103029.31
2023-04-02T23:16:12.383Z,103031.22
2023-04-02T23:18:40.578Z,103029.53
2023-04-02T23:21:08.019Z,103030.59
2023-04-02T23:23:35.184Z,103027.88
2023-04-02T23:26:07.627Z,103043.13
2023-04-02T23:28:35.314Z,103034.38
2023-04-02T23:31:03.545Z,103031.66
2023-04-02T23:33:30.295Z,103034.38
2023-04-02T23:35:57.170Z,103031.03
2023-04-02T23:38:24.423Z,103032.94
2023-04-02T23:40:51.269Z,103036.72
2023-04-02T23:43:18.006Z,103035.88
2023-04-02T23:45:51.068Z,103045.13
2023-04-02T23:48:17.991Z,103043.22
2023-04-02T23:50:45.529Z,103036.31
2023-04-02T23:53:13.213Z,103039.03
2023-04-02T23:55:40.439Z,103048.88
2023-04-02T23:58:07.272Z,103038.22
